Quathiaski Cove, Canada
Current Conditions -  °F | °C
As of 9:00 AM on Friday 31 Oct 2014 (Local Time) from CYBL Reporting Station
Overcast Overcast  
Wind Chill: 45°   Ceiling: 2200
Heat Index: 45°   Visibility: 30mi
Dew Point: 43°   Wind: 2mph
Humidity: 93%   Direction: 280°W
Pressure: 29.75"   Gusts: NA
Location:  50.05°N, 125.18°W
Report Text: CYBL 311600Z 28002KT 30SM BKN022 BKN045 OVC220 07/06 A2975 RMK SC5SC1CI2 SLP077
Loading
Personal Weather Stations






























Interactive Weather Map
Tropical Storm Tracking
New forecast layout! Learn more

10-Day Weather Forecast

Advertisements
Track Severe Weather on mobile